METAR Formatted Surface Weather Observation
Issued by NWS

Home | Current Version | Previous Version | Text Only | Print | Product List | Glossary On
Versions: 1 2 3 4 5 6 7 8 9 10 11 12 13 14
000
SAUS46 KSEW 211003
MTRSMP
METAR KSMP 210956Z AUTO VRB03KT 10SM CLR 14/06 A3009 RMK AO2 SLP160
T01390061 $



USA.gov is the U.S. government's official web portal to all federal, state and local government web resources and services.